createdAt,value
2018-08-18T00:00:24.201Z,99.90
2018-08-18T00:02:53.382Z,99.90
2018-08-18T00:05:22.638Z,99.90
2018-08-18T00:07:51.804Z,99.90
2018-08-18T00:10:22.391Z,99.90
2018-08-18T00:12:51.825Z,99.90
2018-08-18T00:15:20.995Z,99.90
2018-08-18T00:17:50.165Z,99.90
2018-08-18T00:20:22.306Z,99.90
2018-08-18T00:22:51.438Z,99.90
2018-08-18T00:25:20.594Z,99.90
2018-08-18T00:27:49.698Z,99.90
2018-08-18T00:30:24.218Z,99.90
2018-08-18T00:32:54.418Z,99.90
2018-08-18T00:35:23.985Z,99.90
2018-08-18T00:37:53.109Z,99.90
2018-08-18T00:40:22.262Z,99.90
2018-08-18T00:42:51.432Z,99.90
2018-08-18T00:45:20.741Z,99.90
2018-08-18T00:47:50.903Z,99.90
2018-08-18T00:50:40.218Z,99.90
2018-08-18T00:53:10.610Z,99.90
2018-08-18T00:55:39.798Z,99.90
2018-08-18T00:58:16.211Z,99.90
2018-08-18T01:00:49.521Z,99.90
2018-08-18T01:03:18.591Z,99.90
2018-08-18T01:05:47.735Z,99.90
2018-08-18T01:08:16.854Z,99.90
2018-08-18T01:10:45.998Z,99.90
2018-08-18T01:13:15.172Z,99.90
2018-08-18T01:15:44.264Z,99.90
2018-08-18T01:18:13.334Z,99.90
2018-08-18T01:20:42.465Z,99.90
2018-08-18T01:23:11.558Z,99.90
2018-08-18T01:25:40.653Z,99.90
2018-08-18T01:28:09.759Z,99.90
2018-08-18T01:30:38.870Z,99.90
2018-08-18T01:33:07.969Z,99.90
2018-08-18T01:35:37.073Z,99.90
2018-08-18T01:38:06.245Z,99.90
2018-08-18T01:40:35.322Z,99.90
2018-08-18T01:43:04.431Z,99.90
2018-08-18T01:45:33.573Z,99.90
2018-08-18T01:48:02.705Z,99.90
2018-08-18T01:50:31.749Z,99.90
2018-08-18T01:53:00.860Z,99.90
2018-08-18T01:55:29.963Z,99.90
2018-08-18T01:57:59.069Z,99.90
2018-08-18T02:00:28.662Z,99.90
2018-08-18T02:02:57.808Z,99.90
2018-08-18T02:05:26.978Z,99.90
2018-08-18T02:07:56.096Z,99.90
2018-08-18T02:10:25.192Z,99.90
2018-08-18T02:12:59.908Z,99.90
2018-08-18T02:15:29.402Z,99.90
2018-08-18T02:17:58.533Z,99.90
2018-08-18T02:20:27.672Z,99.90
2018-08-18T02:22:56.777Z,99.90
2018-08-18T02:25:25.926Z,99.90
2018-08-18T02:27:55.025Z,99.90
2018-08-18T02:30:24.541Z,99.90
2018-08-18T02:32:53.715Z,99.90
2018-08-18T02:35:23.296Z,99.90
2018-08-18T02:37:52.532Z,99.90
2018-08-18T02:40:21.756Z,99.90
2018-08-18T02:42:50.879Z,99.90
2018-08-18T02:45:20.018Z,99.90
2018-08-18T02:47:58.790Z,99.90
2018-08-18T02:50:28.018Z,99.90
2018-08-18T02:52:57.223Z,99.90
2018-08-18T02:55:26.504Z,99.90
2018-08-18T02:57:55.634Z,99.90
2018-08-18T03:00:29.851Z,99.90
2018-08-18T03:02:58.957Z,99.90
2018-08-18T03:05:28.282Z,99.90
2018-08-18T03:07:57.536Z,99.90
2018-08-18T03:10:27.649Z,99.90
2018-08-18T03:12:59.629Z,99.90
2018-08-18T03:16:07.120Z,99.90
2018-08-18T03:18:41.973Z,99.90
2018-08-18T03:21:11.129Z,99.90
2018-08-18T03:23:51.513Z,99.90
2018-08-18T03:26:26.269Z,99.90
2018-08-18T03:28:55.402Z,99.90
2018-08-18T03:31:24.510Z,99.90
2018-08-18T03:33:53.621Z,99.90
2018-08-18T03:36:30.138Z,99.90
2018-08-18T03:38:59.605Z,99.90
2018-08-18T03:41:29.378Z,99.90
2018-08-18T03:43:58.792Z,99.90
2018-08-18T03:46:27.890Z,99.90
2018-08-18T03:48:57.064Z,99.90
2018-08-18T03:51:31.744Z,99.90
2018-08-18T03:54:01.637Z,99.90
2018-08-18T03:56:30.808Z,99.90
2018-08-18T03:59:00.107Z,99.90
2018-08-18T04:01:43.538Z,99.90
2018-08-18T04:04:13.565Z,99.90
2018-08-18T04:06:43.786Z,99.90
2018-08-18T04:09:20.854Z,99.90
2018-08-18T04:11:50.345Z,99.90
2018-08-18T04:14:32.828Z,99.90
2018-08-18T04:17:01.918Z,99.90
2018-08-18T04:19:31.074Z,99.90
2018-08-18T04:22:00.189Z,99.90
2018-08-18T04:24:34.713Z,99.90
2018-08-18T04:27:03.885Z,99.90
2018-08-18T04:29:32.992Z,99.90
2018-08-18T04:32:02.472Z,99.90
2018-08-18T04:34:31.569Z,99.90
2018-08-18T04:37:01.846Z,99.90
2018-08-18T04:39:30.956Z,99.90
2018-08-18T04:42:00.080Z,99.90
2018-08-18T04:44:29.146Z,99.90
2018-08-18T04:46:58.285Z,99.90
2018-08-18T04:49:27.381Z,99.90
2018-08-18T04:51:56.521Z,99.90
2018-08-18T04:54:25.632Z,99.90
2018-08-18T04:56:54.819Z,99.90
2018-08-18T04:59:23.980Z,99.90
2018-08-18T05:01:52.995Z,99.90
2018-08-18T05:04:22.074Z,99.90
2018-08-18T05:06:51.505Z,99.90
2018-08-18T05:09:20.589Z,99.90
2018-08-18T05:11:49.724Z,99.90
2018-08-18T05:14:18.793Z,99.90
2018-08-18T05:16:47.910Z,99.90
2018-08-18T05:19:17.021Z,99.90
2018-08-18T05:21:46.150Z,99.90
2018-08-18T05:24:24.890Z,99.90
2018-08-18T05:26:55.256Z,99.90
2018-08-18T05:29:24.381Z,99.90
2018-08-18T05:31:53.542Z,99.90
2018-08-18T05:34:22.641Z,99.90
2018-08-18T05:36:51.769Z,99.90
2018-08-18T05:39:20.841Z,99.90
2018-08-18T05:41:49.982Z,99.90
2018-08-18T05:44:19.110Z,99.90
2018-08-18T05:46:48.225Z,99.90
2018-08-18T05:49:17.366Z,99.90
2018-08-18T05:51:48.744Z,99.90
2018-08-18T05:54:26.311Z,99.90
2018-08-18T05:56:55.541Z,99.90
2018-08-18T05:59:24.750Z,99.90
2018-08-18T06:01:54.008Z,99.90
2018-08-18T06:04:23.152Z,99.90
2018-08-18T06:06:53.025Z,99.90
2018-08-18T06:09:23.139Z,99.90
2018-08-18T06:11:52.413Z,99.90
2018-08-18T06:14:21.529Z,99.90
2018-08-18T06:16:50.677Z,99.90
2018-08-18T06:19:19.778Z,99.90
2018-08-18T06:21:48.902Z,99.90
2018-08-18T06:24:18.018Z,99.90
2018-08-18T06:26:47.186Z,99.90
2018-08-18T06:29:16.793Z,99.90
2018-08-18T06:31:57.180Z,99.90
2018-08-18T06:34:27.290Z,99.90
2018-08-18T06:36:56.502Z,99.90
2018-08-18T06:39:25.607Z,99.90
2018-08-18T06:41:54.734Z,99.90
2018-08-18T06:44:27.058Z,99.90
2018-08-18T06:46:56.451Z,99.90
2018-08-18T06:49:25.633Z,99.90
2018-08-18T06:51:54.746Z,99.90
2018-08-18T06:54:23.951Z,99.90
2018-08-18T06:56:53.058Z,99.90
2018-08-18T06:59:22.130Z,99.90
2018-08-18T07:01:51.218Z,99.90
2018-08-18T07:04:24.589Z,99.90
2018-08-18T07:06:53.936Z,99.90
2018-08-18T07:09:23.073Z,99.90
2018-08-18T07:11:52.178Z,99.90
2018-08-18T07:14:21.290Z,99.90
2018-08-18T07:16:50.443Z,99.90
2018-08-18T07:19:19.583Z,99.90
2018-08-18T07:21:48.653Z,99.90
2018-08-18T07:24:17.789Z,99.90
2018-08-18T07:26:46.924Z,99.90
2018-08-18T07:29:16.042Z,99.90
2018-08-18T07:31:45.173Z,99.90
2018-08-18T07:34:14.281Z,99.90
2018-08-18T07:36:43.398Z,99.90
2018-08-18T07:39:12.608Z,99.90
2018-08-18T07:41:41.715Z,99.90
2018-08-18T07:44:10.865Z,99.90
2018-08-18T07:46:40.018Z,99.90
2018-08-18T07:49:09.148Z,99.90
2018-08-18T07:51:38.302Z,99.90
2018-08-18T07:54:07.442Z,99.90
2018-08-18T07:56:36.541Z,99.90
2018-08-18T07:59:05.703Z,99.90
2018-08-18T08:01:34.874Z,99.10
2018-08-18T08:04:04.032Z,99.70
2018-08-18T08:06:33.134Z,99.00
2018-08-18T08:09:02.755Z,97.90
2018-08-18T08:11:31.852Z,97.00
2018-08-18T08:14:01.025Z,96.20
2018-08-18T08:16:30.154Z,96.60
2018-08-18T08:18:59.294Z,95.90
2018-08-18T08:21:28.457Z,94.60
2018-08-18T08:23:57.617Z,94.50
2018-08-18T08:26:26.743Z,92.90
2018-08-18T08:28:55.893Z,94.90
2018-08-18T08:31:25.049Z,95.00
2018-08-18T08:33:54.182Z,94.10
2018-08-18T08:36:23.297Z,94.50
2018-08-18T08:38:57.186Z,94.60
2018-08-18T08:41:28.915Z,94.70
2018-08-18T08:43:58.086Z,92.80
2018-08-18T08:46:27.361Z,92.00
2018-08-18T08:48:58.884Z,91.80
2018-08-18T08:51:28.042Z,91.20
2018-08-18T08:53:58.485Z,90.90
2018-08-18T08:56:34.669Z,92.10
2018-08-18T08:59:04.209Z,92.00
2018-08-18T09:01:33.526Z,90.30
2018-08-18T09:04:03.155Z,88.80
2018-08-18T09:06:32.359Z,88.00
2018-08-18T09:09:01.477Z,87.10
2018-08-18T09:11:30.585Z,84.90
2018-08-18T09:14:02.769Z,82.50
2018-08-18T09:16:33.161Z,79.60
2018-08-18T09:19:02.289Z,81.00
2018-08-18T09:21:39.414Z,81.00
2018-08-18T09:24:08.573Z,79.00
2018-08-18T09:26:42.947Z,79.40
2018-08-18T09:29:13.209Z,78.30
2018-08-18T09:31:43.354Z,75.40
2018-08-18T09:34:12.608Z,73.40
2018-08-18T09:36:43.004Z,72.60
2018-08-18T09:39:46.518Z,73.80
2018-08-18T09:42:17.090Z,75.30
2018-08-18T09:44:48.157Z,70.20
2018-08-18T09:47:17.449Z,68.70
2018-08-18T09:49:46.718Z,68.80
2018-08-18T09:52:17.805Z,69.70
2018-08-18T09:54:46.999Z,68.60
2018-08-18T09:57:16.214Z,66.40
2018-08-18T09:59:45.337Z,65.80
2018-08-18T10:02:14.981Z,65.00
2018-08-18T10:04:44.064Z,65.20
2018-08-18T10:07:13.328Z,63.10
2018-08-18T10:09:42.442Z,62.70
2018-08-18T10:12:12.118Z,61.60
2018-08-18T10:14:41.261Z,61.30
2018-08-18T10:17:10.445Z,60.50
2018-08-18T10:19:39.533Z,60.80
2018-08-18T10:22:08.649Z,59.20
2018-08-18T10:24:37.818Z,63.20
2018-08-18T10:27:07.196Z,61.50
2018-08-18T10:29:36.322Z,61.70
2018-08-18T10:32:05.652Z,61.60
2018-08-18T10:34:34.741Z,60.40
2018-08-18T10:37:05.360Z,58.30
2018-08-18T10:39:35.245Z,57.90
2018-08-18T10:42:14.474Z,58.80
2018-08-18T10:44:51.015Z,57.80
2018-08-18T10:47:21.601Z,57.30
2018-08-18T10:50:02.008Z,56.60
2018-08-18T10:52:42.842Z,58.60
2018-08-18T10:55:13.022Z,58.60
2018-08-18T10:57:54.337Z,58.00
2018-08-18T11:00:25.966Z,58.00
2018-08-18T11:02:56.205Z,57.90
2018-08-18T11:05:26.189Z,56.40
2018-08-18T11:08:01.023Z,56.20
2018-08-18T11:10:31.756Z,55.60
2018-08-18T11:13:01.186Z,55.90
2018-08-18T11:15:30.382Z,55.00
2018-08-18T11:18:00.098Z,54.40
2018-08-18T11:20:31.298Z,54.10
2018-08-18T11:23:04.025Z,56.50
2018-08-18T11:25:41.905Z,55.20
2018-08-18T11:28:11.902Z,55.30
2018-08-18T11:30:41.226Z,54.80
2018-08-18T11:33:10.402Z,56.10
2018-08-18T11:35:39.506Z,56.10
2018-08-18T11:38:15.462Z,55.00
2018-08-18T11:40:44.896Z,55.20
2018-08-18T11:43:15.405Z,55.20
2018-08-18T11:45:46.772Z,53.80
2018-08-18T11:48:27.267Z,53.70
2018-08-18T11:50:57.135Z,52.60
2018-08-18T11:53:26.290Z,53.40
2018-08-18T11:55:55.445Z,52.60
2018-08-18T11:58:25.403Z,52.00
2018-08-18T12:00:59.556Z,52.10
2018-08-18T12:03:31.295Z,52.00
2018-08-18T12:06:03.405Z,52.00
2018-08-18T12:08:33.705Z,52.10
2018-08-18T12:11:06.116Z,52.10
2018-08-18T12:13:41.702Z,52.40
2018-08-18T12:16:15.681Z,52.00
2018-08-18T12:18:45.937Z,52.20
2018-08-18T12:21:15.634Z,51.50
2018-08-18T12:23:46.176Z,52.10
2018-08-18T12:26:21.790Z,50.70
2018-08-18T12:28:52.501Z,50.20
2018-08-18T12:31:28.626Z,50.90
2018-08-18T12:33:57.813Z,50.00
2018-08-18T12:36:26.939Z,51.80
2018-08-18T12:38:57.332Z,51.50
2018-08-18T12:41:26.432Z,49.70
2018-08-18T12:43:56.946Z,51.10
2018-08-18T12:46:35.173Z,50.60
2018-08-18T12:49:05.767Z,49.70
2018-08-18T12:51:34.953Z,51.80
2018-08-18T12:54:04.126Z,51.70
2018-08-18T12:56:33.220Z,51.10
2018-08-18T12:59:02.334Z,50.60
2018-08-18T13:01:39.973Z,50.70
2018-08-18T13:04:11.989Z,52.20
2018-08-18T13:06:48.442Z,51.20
2018-08-18T13:09:21.174Z,51.90
2018-08-18T13:11:51.662Z,50.50
2018-08-18T13:14:22.446Z,51.00
2018-08-18T13:16:51.494Z,51.60
2018-08-18T13:19:22.773Z,50.60
2018-08-18T13:21:51.883Z,50.70
2018-08-18T13:24:21.022Z,50.00
2018-08-18T13:26:50.293Z,50.70
2018-08-18T13:29:19.442Z,50.30
2018-08-18T13:31:48.581Z,51.00
2018-08-18T13:34:18.418Z,51.20
2018-08-18T13:36:47.847Z,49.60
2018-08-18T13:39:19.266Z,49.60
2018-08-18T13:41:49.510Z,50.00
2018-08-18T13:44:26.358Z,50.30
2018-08-18T13:46:55.542Z,50.70
2018-08-18T13:49:25.784Z,50.40
2018-08-18T13:51:54.993Z,49.00
2018-08-18T13:54:24.097Z,48.40
2018-08-18T13:56:53.213Z,49.00
2018-08-18T13:59:44.486Z,50.10
2018-08-18T14:02:13.627Z,49.90
2018-08-18T14:04:43.593Z,49.10
2018-08-18T14:07:13.224Z,49.50
2018-08-18T14:09:47.796Z,49.20
2018-08-18T14:12:21.417Z,49.10
2018-08-18T14:14:50.669Z,49.10
2018-08-18T14:17:22.067Z,49.10
2018-08-18T14:19:52.767Z,49.00
2018-08-18T14:22:23.251Z,50.00
2018-08-18T14:24:52.849Z,50.70
2018-08-18T14:27:24.040Z,49.80
2018-08-18T14:29:55.957Z,48.20
2018-08-18T14:32:29.149Z,48.90
2018-08-18T14:35:05.898Z,48.60
2018-08-18T14:37:42.589Z,48.30
2018-08-18T14:40:15.449Z,49.20
2018-08-18T14:42:45.295Z,49.00
2018-08-18T14:45:16.806Z,48.10
2018-08-18T14:47:47.876Z,47.10
2018-08-18T14:50:20.062Z,48.80
2018-08-18T14:52:49.349Z,48.00
2018-08-18T14:55:18.744Z,50.20
2018-08-18T14:57:53.401Z,51.10
2018-08-18T15:00:22.856Z,49.00
2018-08-18T15:02:52.287Z,48.90
2018-08-18T15:05:21.393Z,49.10
2018-08-18T15:07:52.921Z,48.80
2018-08-18T15:10:35.735Z,50.10
2018-08-18T15:13:05.540Z,48.40
2018-08-18T15:15:35.335Z,50.20
2018-08-18T15:18:08.591Z,51.60
2018-08-18T15:20:38.636Z,51.10
2018-08-18T15:23:08.724Z,51.60
2018-08-18T15:25:38.975Z,51.50
2018-08-18T15:28:12.525Z,52.40
2018-08-18T15:30:42.837Z,52.80
2018-08-18T15:33:15.101Z,52.90
2018-08-18T15:35:44.250Z,53.40
2018-08-18T15:38:13.519Z,53.70
2018-08-18T15:40:43.470Z,53.70
2018-08-18T15:43:12.630Z,53.90
2018-08-18T15:46:04.475Z,53.70
2018-08-18T15:48:34.157Z,54.70
2018-08-18T15:51:03.388Z,54.20
2018-08-18T15:53:55.047Z,54.40
2018-08-18T15:56:25.206Z,54.80
2018-08-18T15:58:55.389Z,54.10
2018-08-18T16:01:26.090Z,54.30
2018-08-18T16:03:56.433Z,54.40
2018-08-18T16:06:25.558Z,54.70
2018-08-18T16:08:54.945Z,55.40
2018-08-18T16:11:24.330Z,55.40
2018-08-18T16:13:53.683Z,55.70
2018-08-18T16:16:22.765Z,55.60
2018-08-18T16:19:00.558Z,55.10
2018-08-18T16:21:32.670Z,55.60
2018-08-18T16:24:02.225Z,56.30
2018-08-18T16:26:31.391Z,56.70
2018-08-18T16:29:00.513Z,57.00
2018-08-18T16:31:30.121Z,54.80
2018-08-18T16:33:59.286Z,54.50
2018-08-18T16:36:32.834Z,55.90
2018-08-18T16:39:02.243Z,56.00
2018-08-18T16:41:31.454Z,56.90
2018-08-18T16:44:00.592Z,58.10
2018-08-18T16:46:31.254Z,57.50
2018-08-18T16:49:00.503Z,57.50
2018-08-18T16:51:29.635Z,56.90
2018-08-18T16:54:14.413Z,56.80
2018-08-18T16:56:43.770Z,57.00
2018-08-18T16:59:12.906Z,56.90
2018-08-18T17:01:42.056Z,58.30
2018-08-18T17:04:16.127Z,59.60
2018-08-18T17:06:45.525Z,60.90
2018-08-18T17:09:24.491Z,62.00
2018-08-18T17:12:04.877Z,62.60
2018-08-18T17:14:33.981Z,62.90
2018-08-18T17:17:03.142Z,62.40
2018-08-18T17:19:32.399Z,63.60
2018-08-18T17:22:01.749Z,63.30
2018-08-18T17:24:30.850Z,63.60
2018-08-18T17:26:59.951Z,64.30
2018-08-18T17:29:30.394Z,64.40
2018-08-18T17:31:59.502Z,64.80
2018-08-18T17:34:28.630Z,65.10
2018-08-18T17:36:57.763Z,67.30
2018-08-18T17:39:26.890Z,69.90
2018-08-18T17:41:56.311Z,70.60
2018-08-18T17:44:25.481Z,75.20
2018-08-18T17:46:55.585Z,75.80
2018-08-18T17:49:26.135Z,76.60
2018-08-18T17:52:05.471Z,76.90
2018-08-18T17:54:35.426Z,76.60
2018-08-18T17:57:05.122Z,78.60
2018-08-18T17:59:34.781Z,78.50
2018-08-18T18:02:11.754Z,79.80
2018-08-18T18:04:40.869Z,79.90
2018-08-18T18:07:11.133Z,82.60
2018-08-18T18:09:40.253Z,84.00
2018-08-18T18:12:29.250Z,83.40
2018-08-18T18:14:58.365Z,84.70
2018-08-18T18:17:27.966Z,86.40
2018-08-18T18:19:58.802Z,88.00
2018-08-18T18:22:34.974Z,90.00
2018-08-18T18:25:04.146Z,91.40
2018-08-18T18:27:33.353Z,92.30
2018-08-18T18:30:02.535Z,92.60
2018-08-18T18:32:31.749Z,92.80
2018-08-18T18:35:00.985Z,93.40
2018-08-18T18:37:30.141Z,95.10
2018-08-18T18:40:01.397Z,96.10
2018-08-18T18:42:30.551Z,96.80
2018-08-18T18:45:00.006Z,97.70
2018-08-18T18:47:29.502Z,97.50
2018-08-18T18:49:58.629Z,96.70
2018-08-18T18:52:27.834Z,96.40
2018-08-18T18:54:58.235Z,95.90
2018-08-18T18:57:27.397Z,94.20
2018-08-18T19:00:00.748Z,94.70
2018-08-18T19:02:36.465Z,95.70
2018-08-18T19:05:15.216Z,97.20
2018-08-18T19:07:44.369Z,96.90
2018-08-18T19:10:13.459Z,97.10
2018-08-18T19:12:42.552Z,97.50
2018-08-18T19:15:11.664Z,97.70
2018-08-18T19:17:40.757Z,98.50
2018-08-18T19:20:21.270Z,98.70
2018-08-18T19:22:51.377Z,98.70
2018-08-18T19:25:20.469Z,98.80
2018-08-18T19:27:49.675Z,98.80
2018-08-18T19:30:18.853Z,99.70
2018-08-18T19:32:51.883Z,98.30
2018-08-18T19:35:28.241Z,97.80
2018-08-18T19:37:58.793Z,98.20
2018-08-18T19:40:28.021Z,99.20
2018-08-18T19:42:57.230Z,98.90
2018-08-18T19:45:26.309Z,98.30
2018-08-18T19:47:55.401Z,97.90
2018-08-18T19:50:24.535Z,97.90
2018-08-18T19:53:02.967Z,97.10
2018-08-18T19:55:32.458Z,97.40
2018-08-18T19:58:01.585Z,97.40
2018-08-18T20:00:30.705Z,98.20
2018-08-18T20:03:19.784Z,98.30
2018-08-18T20:05:48.877Z,97.40
2018-08-18T20:08:19.719Z,97.60
2018-08-18T20:10:54.461Z,98.20
2018-08-18T20:13:24.806Z,97.90
2018-08-18T20:15:57.901Z,98.60
2018-08-18T20:18:27.094Z,99.30
2018-08-18T20:20:57.730Z,99.40
2018-08-18T20:23:26.864Z,98.80
2018-08-18T20:25:55.993Z,98.20
2018-08-18T20:28:25.196Z,98.90
2018-08-18T20:30:54.290Z,99.90
2018-08-18T20:33:23.456Z,99.90
2018-08-18T20:35:52.631Z,99.90
2018-08-18T20:38:21.776Z,99.30
2018-08-18T20:40:51.299Z,99.00
2018-08-18T20:43:21.012Z,99.60
2018-08-18T20:45:50.507Z,99.90
2018-08-18T20:48:21.910Z,99.90
2018-08-18T20:50:52.049Z,99.90
2018-08-18T20:53:21.241Z,99.90
2018-08-18T20:55:57.734Z,99.90
2018-08-18T20:58:27.349Z,99.90
2018-08-18T21:00:56.460Z,98.20
2018-08-18T21:03:41.097Z,97.70
2018-08-18T21:06:14.516Z,97.60
2018-08-18T21:08:45.010Z,98.10
2018-08-18T21:11:15.442Z,99.80
2018-08-18T21:13:49.206Z,99.90
2018-08-18T21:16:19.037Z,99.90
2018-08-18T21:18:48.239Z,99.90
2018-08-18T21:21:34.121Z,99.90
2018-08-18T21:24:03.456Z,99.90
2018-08-18T21:26:32.566Z,99.90
2018-08-18T21:30:20.009Z,99.90
2018-08-18T21:32:49.288Z,99.90
2018-08-18T21:35:19.533Z,99.90
2018-08-18T21:37:48.649Z,99.90
2018-08-18T21:40:17.756Z,99.90
2018-08-18T21:42:47.289Z,99.90
2018-08-18T21:45:17.404Z,99.90
2018-08-18T21:47:47.498Z,99.90
2018-08-18T21:50:17.393Z,99.90
2018-08-18T21:52:46.790Z,99.90
2018-08-18T21:55:16.453Z,99.90
2018-08-18T21:57:59.966Z,99.90
2018-08-18T22:00:35.252Z,99.90
2018-08-18T22:03:04.505Z,99.90
2018-08-18T22:05:33.812Z,99.90
2018-08-18T22:08:02.947Z,99.90
2018-08-18T22:10:32.093Z,99.90
2018-08-18T22:13:01.251Z,99.90
2018-08-18T22:15:32.533Z,99.90
2018-08-18T22:18:01.689Z,99.90
2018-08-18T22:20:30.861Z,99.90
2018-08-18T22:23:00.010Z,99.90
2018-08-18T22:25:29.165Z,99.90
2018-08-18T22:27:58.309Z,99.90
2018-08-18T22:30:27.809Z,99.90
2018-08-18T22:32:56.962Z,99.90
2018-08-18T22:35:26.117Z,99.90
2018-08-18T22:37:55.229Z,99.90
2018-08-18T22:40:24.445Z,99.90
2018-08-18T22:42:53.550Z,99.90
2018-08-18T22:45:26.864Z,99.90
2018-08-18T22:47:56.001Z,99.90
2018-08-18T22:50:25.166Z,99.90
2018-08-18T22:52:55.112Z,99.90
2018-08-18T22:55:24.217Z,99.90
2018-08-18T22:58:00.946Z,99.90
2018-08-18T23:00:30.949Z,99.90
2018-08-18T23:03:00.005Z,99.90
2018-08-18T23:05:29.155Z,99.90
2018-08-18T23:07:58.426Z,99.90
2018-08-18T23:10:31.592Z,99.90
2018-08-18T23:13:01.964Z,99.90
2018-08-18T23:15:31.497Z,99.90
2018-08-18T23:18:00.606Z,99.90
2018-08-18T23:20:29.756Z,99.90
2018-08-18T23:23:01.094Z,99.90
2018-08-18T23:25:32.584Z,99.90
2018-08-18T23:28:01.753Z,99.90
2018-08-18T23:30:33.403Z,99.90
2018-08-18T23:33:03.910Z,99.90
2018-08-18T23:35:33.117Z,99.90
2018-08-18T23:38:02.533Z,99.90
2018-08-18T23:40:32.912Z,99.90
2018-08-18T23:43:02.110Z,99.90
2018-08-18T23:45:40.365Z,99.90
2018-08-18T23:48:13.470Z,99.90
2018-08-18T23:50:44.641Z,99.90
2018-08-18T23:53:16.219Z,99.90
2018-08-18T23:55:51.972Z,99.90
2018-08-18T23:58:23.590Z,99.90
